Time;durP1;ratioP1;P1;durP2;ratioP2;P2;SDS_P1;SDS_P2;PMS_P1;PMS_P2;Temp;Humidity;BMP_temperature;BMP_pressure;BME280_temperature;BME280_humidity;BME280_pressure;Samples;Min_cycle;Max_cycle;Signal;HPM_P1;HPM_P2
2023/04/28 00:00:06;;;;;;;7.50;4.17;;;;;;;10.71;100.00;100514.19;688614;28;1572;-67
2023/04/28 00:00:27;;;;;;;5.88;3.70;;;;;;;10.68;100.00;100515.09;686431;28;964;-68
2023/04/28 00:00:47;;;;;;;6.95;3.83;;;;;;;10.71;100.00;100514.19;688292;28;845;-68
2023/04/28 00:01:07;;;;;;;6.03;3.93;;;;;;;10.71;100.00;100504.59;686690;28;1492;-68
2023/04/28 00:01:28;;;;;;;6.15;3.95;;;;;;;10.70;100.00;100517.69;689817;28;1249;-68
2023/04/28 00:01:49;;;;;;;7.53;3.90;;;;;;;10.68;100.00;100512.47;687707;28;1304;-68
2023/04/28 00:02:09;;;;;;;7.93;3.80;;;;;;;10.64;100.00;100508.13;689258;28;1405;-68
2023/04/28 00:02:30;;;;;;;8.00;3.72;;;;;;;10.62;100.00;100511.63;688222;28;4254;-68
2023/04/28 00:02:51;;;;;;;7.60;4.00;;;;;;;10.59;100.00;100506.44;687183;28;908;-67
2023/04/28 00:03:11;;;;;;;7.03;4.30;;;;;;;10.57;100.00;100507.31;690217;28;1282;-68
2023/04/28 00:03:32;;;;;;;6.25;3.85;;;;;;;10.56;100.00;100509.94;687815;28;1020;-68
2023/04/28 00:03:54;;;;;;;6.87;3.90;;;;;;;10.60;100.00;100505.56;686858;28;1272;-68
2023/04/28 00:04:14;;;;;;;5.80;3.75;;;;;;;10.59;100.00;100509.91;690265;28;924;-68
2023/04/28 00:04:34;;;;;;;6.32;3.78;;;;;;;10.57;100.00;100507.31;688690;28;1138;-68
2023/04/28 00:04:55;;;;;;;7.40;3.90;;;;;;;10.58;100.00;100500.34;686997;28;897;-68
2023/04/28 00:05:15;;;;;;;7.13;3.50;;;;;;;10.57;100.00;100502.09;687928;28;4405;-67
2023/04/28 00:05:36;;;;;;;5.97;3.50;;;;;;;10.55;100.00;100498.63;689695;28;948;-68
2023/04/28 00:05:56;;;;;;;6.67;3.40;;;;;;;10.56;100.00;100505.59;688488;28;986;-68
2023/04/28 00:06:16;;;;;;;5.38;3.33;;;;;;;10.55;100.00;100501.25;691404;28;991;-68
2023/04/28 00:06:37;;;;;;;5.47;3.60;;;;;;;10.55;100.00;100495.16;691993;28;781;-68
2023/04/28 00:06:57;;;;;;;6.05;3.70;;;;;;;10.55;100.00;100497.78;689356;28;1000;-68
2023/04/28 00:07:18;;;;;;;7.40;4.00;;;;;;;10.53;100.00;100497.75;692164;28;908;-68
2023/04/28 00:07:38;;;;;;;7.53;3.77;;;;;;;10.51;100.00;100496.91;691913;28;702;-68
2023/04/28 00:08:02;;;;;;;6.20;3.40;;;;;;;10.51;100.00;100502.16;691616;28;899;-68
2023/04/28 00:08:25;;;;;;;6.28;3.47;;;;;;;10.49;100.00;100497.81;692226;28;4279;-68
2023/04/28 00:08:46;;;;;;;6.03;3.60;;;;;;;10.48;100.00;100499.56;690507;28;1429;-67
2023/04/28 00:09:09;;;;;;;6.50;3.63;;;;;;;10.46;100.00;100506.53;690142;28;1125;-68
2023/04/28 00:09:30;;;;;;;6.80;3.85;;;;;;;10.46;100.00;100496.06;689926;28;940;-68
2023/04/28 00:09:50;;;;;;;6.20;3.80;;;;;;;10.44;100.00;100494.34;686243;28;1078;-68
2023/04/28 00:10:11;;;;;;;6.55;3.72;;;;;;;10.44;100.00;100505.69;686324;28;1074;-68
2023/04/28 00:10:31;;;;;;;7.37;3.70;;;;;;;10.47;100.00;100499.56;688120;28;1199;-68
2023/04/28 00:10:52;;;;;;;6.80;3.88;;;;;;;10.44;100.00;100500.47;686164;28;949;-67
2023/04/28 00:11:12;;;;;;;8.20;3.83;;;;;;;10.43;100.00;100503.94;688275;28;979;-68
2023/04/28 00:11:32;;;;;;;7.45;3.83;;;;;;;10.44;100.00;100494.34;690406;28;4524;-68
2023/04/28 00:11:53;;;;;;;6.23;3.73;;;;;;;10.44;100.00;100502.19;689114;28;1243;-68
2023/04/28 00:12:13;;;;;;;6.33;3.60;;;;;;;10.43;100.00;100495.25;690543;28;1910;-68
2023/04/28 00:12:33;;;;;;;5.37;3.40;;;;;;;10.39;100.00;100495.25;688186;28;933;-68
2023/04/28 00:12:54;;;;;;;6.70;3.60;;;;;;;10.40;100.00;100501.34;686974;28;967;-68
2023/04/28 00:13:15;;;;;;;6.15;3.63;;;;;;;10.41;100.00;100500.47;688395;28;830;-68
2023/04/28 00:13:36;;;;;;;6.32;3.22;;;;;;;10.40;100.00;100498.75;690228;28;3445;-68
2023/04/28 00:13:56;;;;;;;5.93;3.40;;;;;;;10.39;100.00;100499.63;686345;28;1503;-67
2023/04/28 00:14:17;;;;;;;7.60;3.63;;;;;;;10.39;100.00;100499.63;688951;28;4352;-68
2023/04/28 00:14:37;;;;;;;6.72;4.00;;;;;;;10.41;100.00;100495.22;690725;28;1523;-68
2023/04/28 00:14:57;;;;;;;6.07;3.73;;;;;;;10.37;100.00;100493.50;688547;28;1601;-68
2023/04/28 00:15:18;;;;;;;7.00;3.75;;;;;;;10.36;100.00;100495.28;688367;28;1086;-68
2023/04/28 00:15:40;;;;;;;7.73;3.80;;;;;;;10.35;100.00;100490.91;689726;28;3613;-68
2023/04/28 00:16:01;;;;;;;7.25;3.70;;;;;;;10.38;100.00;100493.53;688226;28;1506;-68
2023/04/28 00:16:21;;;;;;;5.63;3.70;;;;;;;10.38;100.00;100490.03;683347;28;1158;-68
2023/04/28 00:16:42;;;;;;;5.32;3.47;;;;;;;10.38;100.00;100495.25;683797;28;1263;-68
2023/04/28 00:17:02;;;;;;;4.90;3.30;;;;;;;10.37;100.00;100493.50;682905;28;1460;-68
2023/04/28 00:17:22;;;;;;;5.97;3.58;;;;;;;10.37;100.00;100489.19;685962;28;4425;-68
2023/04/28 00:17:43;;;;;;;6.30;3.50;;;;;;;10.38;100.00;100490.03;685602;28;1513;-68
2023/04/28 00:18:03;;;;;;;5.43;3.67;;;;;;;10.36;100.00;100489.19;683826;28;1702;-68
2023/04/28 00:18:23;;;;;;;5.53;3.55;;;;;;;10.37;100.00;100485.66;688594;28;1288;-68
2023/04/28 00:18:44;;;;;;;6.60;3.40;;;;;;;10.35;100.00;100492.66;686342;28;1079;-67
2023/04/28 00:19:04;;;;;;;5.65;3.42;;;;;;;10.38;100.00;100496.16;684566;28;1518;-68
2023/04/28 00:19:25;;;;;;;5.97;3.40;;;;;;;10.41;100.00;100491.75;687850;28;884;-68
2023/04/28 00:19:45;;;;;;;5.63;3.60;;;;;;;10.41;100.00;100487.38;687729;28;1779;-68
2023/04/28 00:20:06;;;;;;;6.03;3.60;;;;;;;10.48;100.00;100490.84;682041;28;1835;-68
2023/04/28 00:20:27;;;;;;;7.22;3.92;;;;;;;10.48;100.00;100489.09;681289;28;4701;-68
2023/04/28 00:20:48;;;;;;;7.05;4.05;;;;;;;10.50;100.00;100492.56;684942;28;1249;-68
2023/04/28 00:21:08;;;;;;;6.18;3.92;;;;;;;10.56;100.00;100484.69;685093;28;1546;-68
2023/04/28 00:21:29;;;;;;;6.40;3.90;;;;;;;10.60;100.00;100492.50;688744;28;968;-68
2023/04/28 00:21:49;;;;;;;6.18;4.00;;;;;;;10.64;100.00;100487.22;687958;28;1048;-69
2023/04/28 00:22:10;;;;;;;7.70;4.10;;;;;;;10.68;100.00;100494.16;687875;28;1276;-68
2023/04/28 00:22:32;;;;;;;7.63;4.35;;;;;;;10.73;100.00;100491.53;688552;28;952;-68
2023/04/28 00:22:52;;;;;;;6.60;4.25;;;;;;;10.75;100.00;100494.13;689080;28;1720;-68
2023/04/28 00:23:13;;;;;;;6.38;4.15;;;;;;;10.72;100.00;100495.03;690396;28;849;-68
2023/04/28 00:23:34;;;;;;;7.27;4.10;;;;;;;10.71;100.00;100488.91;692520;28;4378;-69
2023/04/28 00:23:57;;;;;;;7.50;4.22;;;;;;;10.72;100.00;100489.78;689309;28;1625;-68
2023/04/28 00:24:18;;;;;;;6.70;4.15;;;;;;;10.70;100.00;100491.53;692091;28;1035;-68
2023/04/28 00:24:38;;;;;;;7.13;4.10;;;;;;;10.68;100.00;100488.94;690008;28;924;-67
2023/04/28 00:24:59;;;;;;;8.15;4.20;;;;;;;10.68;100.00;100493.31;687174;28;1703;-68
2023/04/28 00:25:19;;;;;;;6.93;3.87;;;;;;;10.67;100.00;100491.56;689517;28;770;-67
2023/04/28 00:25:39;;;;;;;5.95;3.80;;;;;;;10.67;100.00;100486.34;684702;28;1138;-68
2023/04/28 00:26:00;;;;;;;6.53;4.00;;;;;;;10.64;100.00;100483.75;683257;28;1493;-68
2023/04/28 00:26:20;;;;;;;7.38;3.80;;;;;;;10.63;100.00;100484.63;681913;28;4276;-68
2023/04/28 00:26:41;;;;;;;6.00;3.70;;;;;;;10.63;100.00;100482.88;684650;28;1063;-68
2023/04/28 00:27:02;;;;;;;5.68;3.90;;;;;;;10.71;100.00;100474.97;683517;28;1678;-68
2023/04/28 00:27:22;;;;;;;5.18;3.60;;;;;;;10.68;100.00;100475.88;685988;28;1340;-68
2023/04/28 00:27:42;;;;;;;5.63;3.67;;;;;;;10.64;100.00;100479.38;684977;28;1458;-68
2023/04/28 00:28:03;;;;;;;7.27;4.23;;;;;;;10.61;100.00;100481.19;681362;28;1623;-68
2023/04/28 00:28:23;;;;;;;6.60;3.90;;;;;;;10.55;100.00;100477.72;686477;28;1314;-69
2023/04/28 00:28:44;;;;;;;5.83;3.60;;;;;;;10.57;100.00;100475.09;685136;28;1426;-68
2023/04/28 00:29:04;;;;;;;6.68;3.95;;;;;;;10.57;100.00;100475.94;684091;28;1493;-68
2023/04/28 00:29:25;;;;;;;6.70;3.70;;;;;;;10.54;100.00;100470.75;682454;28;4433;-68
2023/04/28 00:29:46;;;;;;;7.05;3.80;;;;;;;10.51;100.00;100478.63;680775;29;1201;-68
2023/04/28 00:30:07;;;;;;;7.25;4.40;;;;;;;10.45;100.00;100470.81;681972;28;1543;-68
2023/04/28 00:30:28;;;;;;;6.43;4.15;;;;;;;10.51;100.00;100470.78;684603;28;1219;-68
2023/04/28 00:30:52;;;;;;;6.88;4.13;;;;;;;10.48;100.00;100473.44;684043;28;1442;-69
2023/04/28 00:31:14;;;;;;;8.20;4.32;;;;;;;10.43;100.00;100475.19;683839;28;1203;-69
2023/04/28 00:31:34;;;;;;;6.68;4.00;;;;;;;10.42;100.00;100468.22;690910;28;1181;-69
2023/04/28 00:31:55;;;;;;;6.50;3.90;;;;;;;10.47;100.00;100468.22;687688;28;1513;-69
2023/04/28 00:32:15;;;;;;;5.70;3.60;;;;;;;10.43;100.00;100467.34;682079;28;4500;-68
2023/04/28 00:32:35;;;;;;;6.20;3.95;;;;;;;10.45;100.00;100468.19;684904;28;1389;-69
2023/04/28 00:32:56;;;;;;;6.32;3.97;;;;;;;10.46;100.00;100466.47;683949;28;1279;-69
2023/04/28 00:33:17;;;;;;;6.37;4.27;;;;;;;10.43;100.00;100471.72;687765;28;1533;-70
2023/04/28 00:33:38;;;;;;;6.63;4.50;;;;;;;10.36;100.00;100460.44;685179;28;818;-70
2023/04/28 00:33:59;;;;;;;6.40;4.43;;;;;;;10.31;100.00;100454.34;685605;28;1218;-70
2023/04/28 00:34:19;;;;;;;6.75;4.55;;;;;;;10.31;100.00;100455.19;688923;28;1204;-70
2023/04/28 00:34:40;;;;;;;7.00;4.53;;;;;;;10.35;100.00;100456.94;681700;29;1205;-70
2023/04/28 00:35:00;;;;;;;7.05;4.00;;;;;;;10.28;100.00;100463.06;682043;28;1605;-71
2023/04/28 00:35:21;;;;;;;8.07;4.50;;;;;;;10.33;100.00;100457.81;685772;28;4294;-70
2023/04/28 00:35:41;;;;;;;8.18;4.20;;;;;;;10.30;100.00;100450.88;681170;28;1484;-71
2023/04/28 00:36:02;;;;;;;6.77;4.10;;;;;;;10.32;100.00;100456.94;681588;28;1524;-70
2023/04/28 00:36:23;;;;;;;7.23;4.47;;;;;;;10.28;100.00;100452.63;687799;28;1198;-71
2023/04/28 00:36:43;;;;;;;7.97;4.50;;;;;;;10.27;100.00;100450.00;687756;28;1298;-71
2023/04/28 00:37:06;;;;;;;7.50;4.27;;;;;;;10.28;100.00;100449.16;684640;28;1521;-71
2023/04/28 00:37:27;;;;;;;8.25;4.28;;;;;;;10.28;100.00;100456.97;686810;28;1377;-71
2023/04/28 00:37:48;;;;;;;9.10;4.40;;;;;;;10.25;100.00;100446.56;686973;28;1204;-71
2023/04/28 00:38:08;;;;;;;7.57;4.05;;;;;;;10.26;100.00;100443.03;684861;28;1160;-71
2023/04/28 00:38:29;;;;;;;7.38;4.13;;;;;;;10.21;100.00;100449.16;685235;28;4369;-71
2023/04/28 00:38:50;;;;;;;6.85;4.22;;;;;;;10.18;100.00;100446.59;686525;28;1528;-71
2023/04/28 00:39:11;;;;;;;6.78;4.50;;;;;;;10.16;100.00;100445.75;686245;28;1248;-72
2023/04/28 00:39:31;;;;;;;6.90;4.30;;;;;;;10.12;100.00;100456.19;685208;28;1146;-71
2023/04/28 00:39:55;;;;;;;7.10;4.47;;;;;;;10.09;100.00;100441.41;682219;28;1581;-70
2023/04/28 00:40:16;;;;;;;6.82;4.22;;;;;;;10.05;100.00;100445.81;684023;28;1000;-71
2023/04/28 00:40:37;;;;;;;6.47;4.30;;;;;;;10.02;100.00;100443.22;684670;28;1271;-71
2023/04/28 00:40:58;;;;;;;6.95;4.45;;;;;;;10.00;100.00;100444.09;682193;28;1600;-72
2023/04/28 00:41:18;;;;;;;7.03;4.38;;;;;;;9.99;100.00;100445.81;682957;28;4324;-72
2023/04/28 00:41:38;;;;;;;6.57;4.33;;;;;;;9.99;100.00;100450.19;687807;28;908;-71
2023/04/28 00:41:59;;;;;;;6.73;4.50;;;;;;;9.99;100.00;100443.22;681435;28;1526;-71
2023/04/28 00:42:20;;;;;;;7.88;4.70;;;;;;;9.99;100.00;100447.59;687592;28;1532;-71
2023/04/28 00:42:41;;;;;;;7.15;4.50;;;;;;;10.02;100.00;100448.44;687925;28;1659;-71
2023/04/28 00:43:01;;;;;;;7.10;4.40;;;;;;;10.00;100.00;100444.97;684803;28;1712;-71
2023/04/28 00:43:22;;;;;;;6.97;4.28;;;;;;;9.98;100.00;100448.44;682338;28;5062;-71
2023/04/28 00:43:46;;;;;;;7.30;4.60;;;;;;;9.97;100.00;100444.09;685998;28;1236;-71
2023/04/28 00:44:06;;;;;;;6.53;4.18;;;;;;;9.94;100.00;100445.00;684571;28;1861;-71
2023/04/28 00:44:27;;;;;;;6.03;4.30;;;;;;;9.94;100.00;100447.63;684226;28;4308;-71
2023/04/28 00:44:47;;;;;;;6.80;4.47;;;;;;;9.92;100.00;100449.34;683539;28;1248;-71
2023/04/28 00:45:08;;;;;;;7.68;4.45;;;;;;;9.93;100.00;100445.00;682533;28;1580;-71
2023/04/28 00:45:30;;;;;;;7.47;4.45;;;;;;;9.91;100.00;100444.16;683134;28;1379;-71
2023/04/28 00:45:53;;;;;;;5.88;4.43;;;;;;;9.95;100.00;100445.88;683099;28;1513;-72
2023/04/28 00:46:20;;;;;;;6.53;4.07;;;;;;;9.98;100.00;100449.34;682829;28;1224;-71
2023/04/28 00:46:44;;;;;;;7.43;4.45;;;;;;;9.97;100.00;100447.59;682897;28;1212;-71
2023/04/28 00:47:05;;;;;;;6.65;4.53;;;;;;;9.94;100.00;100442.41;683690;28;1549;-71
2023/04/28 00:47:25;;;;;;;6.55;4.28;;;;;;;9.92;100.00;100445.88;684913;28;4468;-71
2023/04/28 00:47:46;;;;;;;6.60;4.50;;;;;;;9.87;100.00;100441.56;683177;28;1125;-71
2023/04/28 00:48:06;;;;;;;7.15;4.65;;;;;;;9.89;100.00;100434.56;683140;28;1571;-71
2023/04/28 00:48:28;;;;;;;7.83;4.50;;;;;;;9.92;100.00;100448.50;685473;28;1248;-70
2023/04/28 00:48:49;;;;;;;7.10;4.32;;;;;;;9.97;100.00;100447.59;686955;28;1252;-70
2023/04/28 00:49:10;;;;;;;7.22;4.50;;;;;;;10.07;100.00;100444.94;685497;28;1603;-70
2023/04/28 00:49:32;;;;;;;8.10;4.40;;;;;;;10.05;100.00;100443.19;681351;28;968;-69
2023/04/28 00:49:54;;;;;;;7.60;4.38;;;;;;;10.01;100.00;100448.44;682509;28;1533;-70
2023/04/28 00:50:15;;;;;;;7.38;4.35;;;;;;;9.95;100.00;100444.09;683275;28;4317;-68
2023/04/28 00:50:35;;;;;;;7.73;4.20;;;;;;;9.94;100.00;100447.63;682979;28;854;-69
2023/04/28 00:50:56;;;;;;;7.22;4.25;;;;;;;9.94;100.00;100450.22;683787;28;1647;-69
2023/04/28 00:51:16;;;;;;;6.53;4.03;;;;;;;9.91;100.00;100447.59;687633;28;1523;-69
2023/04/28 00:51:37;;;;;;;5.78;4.10;;;;;;;9.91;100.00;100447.59;687315;28;1095;-69
2023/04/28 00:52:02;;;;;;;7.30;4.27;;;;;;;9.89;100.00;100445.00;683176;28;1559;-69
2023/04/28 00:52:22;;;;;;;7.38;4.30;;;;;;;9.88;100.00;100447.63;681091;28;1914;-69
2023/04/28 00:52:43;;;;;;;6.30;4.27;;;;;;;9.93;100.00;100445.00;679936;29;1170;-69
2023/04/28 00:53:03;;;;;;;6.60;4.30;;;;;;;9.93;100.00;100443.25;685107;28;1557;-69
2023/04/28 00:53:23;;;;;;;7.15;4.35;;;;;;;9.92;100.00;100448.50;684337;28;4298;-69
2023/04/28 00:53:44;;;;;;;6.73;4.40;;;;;;;9.86;100.00;100442.44;685963;28;1125;-69
2023/04/28 00:54:05;;;;;;;7.20;4.30;;;;;;;9.87;100.00;100443.28;684945;28;1674;-69
2023/04/28 00:54:26;;;;;;;6.28;4.05;;;;;;;9.83;100.00;100445.06;685716;28;877;-69
2023/04/28 00:54:46;;;;;;;6.73;4.13;;;;;;;9.82;100.00;100448.53;689397;28;814;-69
2023/04/28 00:55:08;;;;;;;6.80;4.30;;;;;;;9.80;100.00;100444.19;684803;28;1734;-69
2023/04/28 00:55:30;;;;;;;6.20;4.22;;;;;;;9.78;100.00;100444.22;687784;28;1054;-69
2023/04/28 00:55:52;;;;;;;7.47;4.63;;;;;;;9.78;100.00;100451.19;686641;28;1545;-69
2023/04/28 00:56:13;;;;;;;7.05;4.63;;;;;;;9.74;100.00;100447.72;690190;28;814;-68
2023/04/28 00:56:35;;;;;;;6.95;4.55;;;;;;;9.73;100.00;100442.50;691887;28;4256;-69
2023/04/28 00:56:56;;;;;;;6.82;4.18;;;;;;;9.73;100.00;100445.09;687177;28;1611;-69
2023/04/28 00:57:16;;;;;;;6.40;4.28;;;;;;;9.73;100.00;100442.50;687001;28;886;-68
2023/04/28 00:57:37;;;;;;;6.65;4.38;;;;;;;9.74;100.00;100439.88;686395;28;905;-69
2023/04/28 00:57:58;;;;;;;7.50;4.37;;;;;;;9.75;100.00;100441.63;681906;28;1141;-68
2023/04/28 00:58:18;;;;;;;7.00;4.50;;;;;;;9.77;100.00;100444.22;683330;28;1356;-68
2023/04/28 00:58:40;;;;;;;6.60;4.50;;;;;;;9.77;100.00;100442.47;684559;28;885;-68
2023/04/28 00:59:00;;;;;;;6.10;4.25;;;;;;;9.80;100.00;100445.09;685243;28;1542;-68
2023/04/28 00:59:20;;;;;;;6.03;4.00;;;;;;;9.82;100.00;100442.47;685203;28;4468;-68
2023/04/28 00:59:41;;;;;;;7.20;4.33;;;;;;;9.81;100.00;100441.56;685778;28;1389;-68
2023/04/28 01:00:03;;;;;;;8.05;4.60;;;;;;;9.80;100.00;100445.09;683690;28;1498;-68
2023/04/28 01:00:23;;;;;;;7.32;4.50;;;;;;;9.80;100.00;100444.19;683472;28;1519;-68
2023/04/28 01:00:43;;;;;;;7.40;4.53;;;;;;;9.85;100.00;100447.66;682457;28;873;-68
2023/04/28 01:01:05;;;;;;;7.10;4.30;;;;;;;9.84;100.00;100446.81;681097;28;1464;-69
2023/04/28 01:01:25;;;;;;;7.00;4.30;;;;;;;9.82;100.00;100438.09;682181;28;1380;-68
2023/04/28 01:01:46;;;;;;;6.63;4.40;;;;;;;9.88;100.00;100448.53;684988;28;1422;-68
2023/04/28 01:02:07;;;;;;;7.55;4.25;;;;;;;9.87;100.00;100444.16;684565;28;1545;-68
2023/04/28 01:02:28;;;;;;;6.85;4.50;;;;;;;9.85;100.00;100439.81;687064;28;4375;-68
2023/04/28 01:02:51;;;;;;;8.15;4.40;;;;;;;9.84;100.00;100444.19;687336;28;995;-68
2023/04/28 01:03:11;;;;;;;7.75;4.50;;;;;;;9.81;100.00;100436.34;684506;28;1355;-68
2023/04/28 01:03:37;;;;;;;7.50;4.43;;;;;;;9.81;100.00;100438.09;685638;28;1080;-68
2023/04/28 01:03:57;;;;;;;6.88;4.00;;;;;;;9.80;100.00;100439.88;687360;28;1565;-68
2023/04/28 01:04:20;;;;;;;6.97;4.22;;;;;;;9.80;100.00;100441.59;688668;28;1436;-69
2023/04/28 01:04:40;;;;;;;6.60;4.30;;;;;;;9.78;100.00;100436.38;688159;28;1243;-68
2023/04/28 01:05:02;;;;;;;7.20;4.17;;;;;;;9.78;100.00;100435.53;687354;28;1582;-68
2023/04/28 01:05:25;;;;;;;7.38;4.20;;;;;;;9.78;100.00;100441.59;683423;28;4300;-68
2023/04/28 01:05:47;;;;;;;6.90;4.00;;;;;;;9.77;100.00;100434.63;685488;28;796;-68
2023/04/28 01:06:08;;;;;;;8.52;4.50;;;;;;;9.75;100.00;100441.63;681994;28;1141;-67
2023/04/28 01:06:30;;;;;;;7.50;4.40;;;;;;;9.75;100.00;100436.41;684018;28;1434;-68
2023/04/28 01:06:54;;;;;;;8.73;4.10;;;;;;;9.75;100.00;100436.41;680659;28;1952;-67
2023/04/28 01:07:15;;;;;;;7.00;3.97;;;;;;;9.74;100.00;100428.56;680951;28;892;-67
2023/04/28 01:07:36;;;;;;;7.13;4.10;;;;;;;9.73;100.00;100437.28;681602;28;1603;-67
2023/04/28 01:07:58;;;;;;;7.82;4.28;;;;;;;9.72;100.00;100431.19;681562;28;1551;-67
2023/04/28 01:08:23;;;;;;;6.37;4.23;;;;;;;9.78;100.00;100431.16;681901;28;4290;-67
2023/04/28 01:08:47;;;;;;;6.43;4.38;;;;;;;9.83;100.00;100426.78;685702;28;1335;-67
2023/04/28 01:09:09;;;;;;;6.25;3.97;;;;;;;9.81;100.00;100430.28;684706;28;1997;-68
2023/04/28 01:09:30;;;;;;;6.03;4.00;;;;;;;9.78;100.00;100420.72;682223;28;1304;-68
2023/04/28 01:09:51;;;;;;;7.32;4.40;;;;;;;9.77;100.00;100429.41;676009;29;3345;-67
2023/04/28 01:10:16;;;;;;;6.45;4.30;;;;;;;9.75;100.00;100425.97;678051;29;1993;-68
2023/04/28 01:10:42;;;;;;;7.60;4.40;;;;;;;9.75;100.00;100431.19;678423;29;1340;-68
2023/04/28 01:11:09;;;;;;;7.72;4.00;;;;;;;9.78;100.00;100422.47;680230;28;1652;-68
2023/04/28 01:11:48;;;;;;;7.90;4.10;;;;;;;9.75;100.00;100425.97;685726;28;5005;-68
2023/04/28 01:12:19;;;;;;;6.95;4.20;;;;;;;9.75;100.00;100425.97;682807;28;1914;-68
2023/04/28 01:12:42;;;;;;;6.03;3.80;;;;;;;9.74;100.00;100425.97;684304;28;1564;-68
2023/04/28 01:13:03;;;;;;;7.40;4.30;;;;;;;9.73;100.00;100426.84;685652;28;923;-68
2023/04/28 01:13:24;;;;;;;6.90;4.10;;;;;;;9.75;100.00;100430.28;687617;28;1135;-68
2023/04/28 01:13:44;;;;;;;6.97;3.97;;;;;;;9.75;100.00;100425.06;681857;28;1369;-68
2023/04/28 01:14:04;;;;;;;6.55;3.90;;;;;;;9.76;100.00;100422.47;681604;28;1670;-68
2023/04/28 01:14:29;;;;;;;7.45;4.25;;;;;;;9.79;100.00;100422.47;684070;28;4320;-68
2023/04/28 01:14:50;;;;;;;6.88;3.95;;;;;;;9.79;100.00;100425.06;684700;28;789;-68
2023/04/28 01:15:18;;;;;;;7.63;4.15;;;;;;;9.76;100.00;100430.31;684279;28;1656;-68
2023/04/28 01:15:40;;;;;;;6.07;4.50;;;;;;;9.76;100.00;100427.69;689807;28;1461;-68
2023/04/28 01:16:00;;;;;;;6.50;4.22;;;;;;;9.75;100.00;100435.50;686237;28;1332;-68
2023/04/28 01:16:21;;;;;;;6.30;4.07;;;;;;;9.73;100.00;100430.31;683386;28;1426;-68
2023/04/28 01:16:42;;;;;;;7.00;4.10;;;;;;;9.71;100.00;100429.47;682999;28;869;-68
2023/04/28 01:17:03;;;;;;;7.60;4.18;;;;;;;9.70;100.00;100432.94;683204;28;1659;-68
2023/04/28 01:17:24;;;;;;;6.87;4.23;;;;;;;9.71;100.00;100435.53;684322;28;4298;-68
2023/04/28 01:17:46;;;;;;;6.45;4.00;;;;;;;9.73;100.00;100435.53;681758;28;1158;-69
2023/04/28 01:18:06;;;;;;;6.53;4.03;;;;;;;9.77;100.00;100432.03;682906;28;1756;-68
2023/04/28 01:18:27;;;;;;;7.43;4.47;;;;;;;9.76;100.00;100430.31;688075;28;754;-69
2023/04/28 01:18:48;;;;;;;6.85;4.25;;;;;;;9.73;100.00;100427.69;687251;28;1232;-68
2023/04/28 01:19:20;;;;;;;6.63;4.50;;;;;;;9.79;100.00;100438.13;686843;28;1943;-68
2023/04/28 01:19:41;;;;;;;7.45;4.30;;;;;;;9.81;100.00;100431.13;689854;28;936;-68
2023/04/28 01:20:01;;;;;;;7.00;4.30;;;;;;;9.80;100.00;100434.63;685166;28;1564;-68
2023/04/28 01:20:21;;;;;;;7.00;4.32;;;;;;;9.79;100.00;100432.00;686738;28;4298;-68
2023/04/28 01:20:42;;;;;;;6.43;4.27;;;;;;;9.77;100.00;100434.63;690098;28;1275;-68
2023/04/28 01:21:03;;;;;;;6.50;4.20;;;;;;;9.77;100.00;100436.38;689601;28;1583;-68
2023/04/28 01:21:31;;;;;;;6.68;4.43;;;;;;;9.77;100.00;100434.63;692188;28;1205;-68
2023/04/28 01:21:53;;;;;;;7.38;4.55;;;;;;;9.77;100.00;100433.78;684512;28;1498;-68
2023/04/28 01:22:15;;;;;;;7.43;4.75;;;;;;;9.73;100.00;100435.53;685893;28;1329;-69
2023/04/28 01:22:37;;;;;;;6.65;4.22;;;;;;;9.73;100.00;100434.66;689824;28;1252;-68
2023/04/28 01:22:57;;;;;;;6.17;4.03;;;;;;;9.72;100.00;100433.81;687185;28;1501;-68
2023/04/28 01:23:18;;;;;;;6.60;4.18;;;;;;;9.69;100.00;100444.25;685730;28;4481;-68
2023/04/28 01:23:38;;;;;;;6.47;4.30;;;;;;;9.68;100.00;100435.56;685011;28;909;-69
2023/04/28 01:24:01;;;;;;;8.07;4.67;;;;;;;9.65;100.00;100440.78;682992;28;1517;-68
2023/04/28 01:24:22;;;;;;;8.10;4.70;;;;;;;9.64;100.00;100440.81;685289;28;1350;-69
2023/04/28 01:24:43;;;;;;;7.75;4.22;;;;;;;9.64;100.00;100435.59;683208;28;1481;-68
2023/04/28 01:25:05;;;;;;;6.32;4.32;;;;;;;9.62;100.00;100434.72;681476;28;1555;-68
2023/04/28 01:25:26;;;;;;;6.18;4.40;;;;;;;9.61;100.00;100438.19;685217;28;1660;-68
2023/04/28 01:25:47;;;;;;;6.75;4.35;;;;;;;9.58;100.00;100433.00;686634;28;1431;-68
2023/04/28 01:26:07;;;;;;;6.40;4.40;;;;;;;9.58;100.00;100435.59;684798;28;1580;-68
2023/04/28 01:26:27;;;;;;;7.43;4.70;;;;;;;9.57;100.00;100436.47;684610;28;4429;-68
2023/04/28 01:26:48;;;;;;;8.95;4.60;;;;;;;9.56;100.00;100432.16;686363;28;1236;-68
2023/04/28 01:27:09;;;;;;;7.65;4.60;;;;;;;9.55;100.00;100436.47;687906;28;1622;-68
2023/04/28 01:27:31;;;;;;;6.20;4.47;;;;;;;9.56;100.00;100438.22;691805;28;1653;-68
2023/04/28 01:27:52;;;;;;;8.43;4.70;;;;;;;9.54;100.00;100432.16;687422;28;1191;-68
2023/04/28 01:28:12;;;;;;;10.10;4.97;;;;;;;9.54;100.00;100442.59;687899;28;1098;-68
2023/04/28 01:28:33;;;;;;;7.53;4.50;;;;;;;9.53;100.00;100435.63;687207;28;1331;-68
2023/04/28 01:28:53;;;;;;;6.40;4.27;;;;;;;9.52;100.00;100439.09;685134;28;1523;-68
2023/04/28 01:29:14;;;;;;;5.90;4.40;;;;;;;9.53;100.00;100436.47;683100;28;1354;-68
2023/04/28 01:29:35;;;;;;;7.45;4.60;;;;;;;9.54;100.00;100437.38;683447;28;4826;-68
2023/04/28 01:29:57;;;;;;;8.60;5.20;;;;;;;9.53;100.00;100439.09;684696;28;1608;-68
2023/04/28 01:30:17;;;;;;;8.15;5.05;;;;;;;9.56;100.00;100435.59;686176;28;1493;-68
2023/04/28 01:30:38;;;;;;;7.23;4.67;;;;;;;9.53;100.00;100436.47;688300;28;1327;-69
2023/04/28 01:30:58;;;;;;;6.43;4.45;;;;;;;9.53;100.00;100441.69;686990;28;1703;-69
2023/04/28 01:31:19;;;;;;;7.03;4.67;;;;;;;9.56;100.00;100429.53;687682;28;1127;-68
2023/04/28 01:31:39;;;;;;;7.65;4.78;;;;;;;9.54;100.00;100433.00;684978;28;1183;-69
2023/04/28 01:32:00;;;;;;;7.65;4.70;;;;;;;9.54;100.00;100442.59;681838;28;1531;-69
2023/04/28 01:32:21;;;;;;;6.93;4.60;;;;;;;9.48;100.00;100433.00;683303;28;4464;-69
2023/04/28 01:32:41;;;;;;;7.87;4.77;;;;;;;9.46;100.00;100440.00;686710;28;874;-69
2023/04/28 01:33:02;;;;;;;7.80;4.87;;;;;;;9.44;100.00;100436.53;687358;28;1774;-69
2023/04/28 01:33:23;;;;;;;8.30;4.90;;;;;;;9.45;100.00;100440.00;690266;28;1041;-69
2023/04/28 01:33:43;;;;;;;6.57;4.53;;;;;;;9.42;100.00;100440.88;686830;28;1148;-70
2023/04/28 01:34:04;;;;;;;6.97;4.55;;;;;;;9.41;100.00;100443.50;683028;28;1689;-69
2023/04/28 01:34:25;;;;;;;6.63;4.47;;;;;;;9.39;100.00;100435.69;680823;28;1177;-69
2023/04/28 01:34:46;;;;;;;7.72;4.80;;;;;;;9.35;100.00;100436.56;681235;29;1283;-69
2023/04/28 01:35:07;;;;;;;7.28;4.88;;;;;;;9.37;100.00;100434.81;683032;28;1557;-69
2023/04/28 01:35:29;;;;;;;7.00;4.57;;;;;;;9.38;100.00;100444.38;679322;29;4317;-69
2023/04/28 01:35:49;;;;;;;7.22;4.70;;;;;;;9.37;100.00;100440.03;682576;28;1166;-70
2023/04/28 01:36:10;;;;;;;7.83;5.07;;;;;;;9.34;100.00;100446.13;681383;28;1558;-72
2023/04/28 01:36:32;;;;;;;8.10;4.70;;;;;;;9.33;100.00;100433.97;682194;29;1477;-71
2023/04/28 01:36:52;;;;;;;7.25;5.03;;;;;;;9.30;100.00;100433.09;687617;28;1204;-71
2023/04/28 01:37:13;;;;;;;7.80;4.77;;;;;;;9.29;100.00;100429.63;684821;28;1244;-71
2023/04/28 01:37:33;;;;;;;8.05;4.88;;;;;;;9.27;100.00;100433.13;682180;28;1130;-71
2023/04/28 01:37:54;;;;;;;7.88;4.80;;;;;;;9.27;100.00;100426.13;679641;29;1697;-71
2023/04/28 01:38:15;;;;;;;6.87;4.50;;;;;;;9.27;100.00;100427.91;678800;29;1250;-71
2023/04/28 01:38:35;;;;;;;6.97;4.43;;;;;;;9.25;100.00;100432.22;678031;29;5604;-71
2023/04/28 01:38:55;;;;;;;7.87;5.03;;;;;;;9.25;100.00;100430.50;681399;28;1787;-71
2023/04/28 01:39:16;;;;;;;7.63;5.00;;;;;;;9.25;100.00;100427.00;684190;28;944;-72
2023/04/28 01:39:36;;;;;;;7.37;4.67;;;;;;;9.24;100.00;100428.78;685635;28;1103;-72
2023/04/28 01:39:57;;;;;;;8.32;4.82;;;;;;;9.23;100.00;100426.16;685478;28;1587;-72
2023/04/28 01:40:19;;;;;;;6.97;4.57;;;;;;;9.25;100.00;100429.63;683087;28;1613;-72
2023/04/28 01:40:39;;;;;;;7.80;4.57;;;;;;;9.24;100.00;100427.91;683732;28;1267;-73